Time;durP1;ratioP1;P1;durP2;ratioP2;P2;SDS_P1;SDS_P2;PMS_P1;PMS_P2;Temp;Humidity;BMP_temperature;BMP_pressure;BME280_temperature;BME280_humidity;BME280_pressure;Samples;Min_cycle;Max_cycle;Signal;HPM_P1;HPM_P2
2023/06/27 00:01:47;;;;;;;11.30;8.10;;;;;;;17.17;90.01;97500.91;106718;1278;22838;-75
2023/06/27 00:04:14;;;;;;;9.20;8.00;;;;;;;17.19;92.78;97497.13;106711;1278;24256;-75
2023/06/27 00:06:41;;;;;;;8.50;7.50;;;;;;;17.15;93.81;97504.57;106728;1277;24164;-75
2023/06/27 00:09:09;;;;;;;10.20;7.30;;;;;;;17.09;93.16;97515.14;106730;1278;24371;-75
2023/06/27 00:11:40;;;;;;;9.50;8.20;;;;;;;17.07;95.43;97528.56;106780;1278;25243;-75
2023/06/27 00:14:08;;;;;;;10.40;8.00;;;;;;;16.97;94.40;97545.88;106694;1277;22553;-77
2023/06/27 00:16:39;;;;;;;12.70;8.10;;;;;;;16.93;95.91;97543.68;106604;1278;22530;-78
2023/06/27 00:19:06;;;;;;;10.90;7.60;;;;;;;16.90;94.96;97530.77;106892;1277;22587;-78
2023/06/27 00:21:34;;;;;;;9.10;6.80;;;;;;;17.01;93.39;97525.60;106925;1277;23933;-78
2023/06/27 00:24:03;;;;;;;8.00;6.00;;;;;;;17.13;94.02;97518.84;107033;1277;22656;-78
2023/06/27 00:26:30;;;;;;;6.90;5.90;;;;;;;17.20;93.41;97518.15;107048;1278;24400;-78
2023/06/27 00:28:57;;;;;;;8.90;6.30;;;;;;;17.28;92.95;97501.55;107013;1277;22540;-78
2023/06/27 00:31:25;;;;;;;9.50;6.00;;;;;;;17.36;91.64;97482.59;106999;1278;24390;-78
2023/06/27 00:33:52;;;;;;;6.80;5.90;;;;;;;17.41;91.31;97480.93;106967;1278;22646;-79
2023/06/27 00:36:18;;;;;;;8.90;6.60;;;;;;;17.48;91.33;97474.54;107045;1278;24235;-78
2023/06/27 00:38:45;;;;;;;8.00;5.60;;;;;;;17.58;91.94;97476.11;106890;1278;25470;-78
2023/06/27 00:41:13;;;;;;;9.90;6.60;;;;;;;17.71;90.28;97496.46;106891;1278;22607;-78
2023/06/27 00:43:42;;;;;;;8.80;6.20;;;;;;;17.73;89.18;97512.62;107059;1278;22608;-78
2023/06/27 00:46:10;;;;;;;8.50;6.60;;;;;;;17.63;89.38;97515.21;106880;1277;25422;-77
2023/06/27 00:48:39;;;;;;;7.20;5.60;;;;;;;17.54;89.57;97519.27;106777;1278;22652;-77
2023/06/27 00:51:09;;;;;;;8.10;5.90;;;;;;;17.45;89.62;97517.43;106520;1278;25344;-78
2023/06/27 00:53:37;;;;;;;8.50;6.40;;;;;;;17.41;89.30;97521.94;106810;1278;23227;-78
2023/06/27 00:56:04;;;;;;;7.60;5.80;;;;;;;17.38;91.30;97531.74;106783;1278;22671;-79
2023/06/27 00:58:33;;;;;;;11.90;5.70;;;;;;;17.27;92.92;97528.52;107000;1278;22523;-77
2023/06/27 01:01:00;;;;;;;7.60;6.40;;;;;;;17.21;95.59;97528.61;107007;1277;24010;-78
2023/06/27 01:03:32;;;;;;;9.10;6.80;;;;;;;17.12;95.24;97527.05;106614;1277;22582;-77
2023/06/27 01:06:07;;;;;;;8.30;7.10;;;;;;;17.05;94.62;97530.39;106602;1261;24301;-77
2023/06/27 01:08:41;;;;;;;9.00;6.70;;;;;;;17.01;94.14;97529.41;106448;1278;22745;-77
2023/06/27 01:11:21;;;;;;;6.20;4.60;;;;;;;17.06;94.45;97521.98;106513;1277;22530;-78
2023/06/27 01:13:50;;;;;;;12.40;7.10;;;;;;;17.29;94.26;97526.92;106674;1277;22539;-78
2023/06/27 01:16:20;;;;;;;10.10;6.60;;;;;;;17.37;93.42;97547.73;106714;1277;24333;-78
2023/06/27 01:18:48;;;;;;;9.30;6.90;;;;;;;17.33;95.13;97561.09;106750;1277;22556;-78
2023/06/27 01:21:20;;;;;;;8.40;7.10;;;;;;;17.21;96.37;97567.80;106735;1278;22527;-79
2023/06/27 01:23:51;;;;;;;8.40;7.20;;;;;;;17.09;95.94;97568.58;106930;1278;25440;-79
2023/06/27 01:26:18;;;;;;;8.90;7.10;;;;;;;17.02;97.11;97571.15;106822;1278;24397;-80
2023/06/27 01:28:45;;;;;;;8.80;6.60;;;;;;;16.97;97.90;97581.65;106831;1277;22539;-82
2023/06/27 01:31:53;;;;;;;8.60;6.40;;;;;;;16.91;98.51;97590.66;106914;1278;24266;-82
2023/06/27 01:34:26;;;;;;;10.70;7.10;;;;;;;16.88;99.16;97591.52;106977;1278;22732;-81
2023/06/27 01:37:02;;;;;;;11.00;8.50;;;;;;;16.85;98.19;97599.89;106956;1278;22935;-81
2023/06/27 01:39:40;;;;;;;9.90;8.40;;;;;;;16.86;97.48;97595.33;106774;1278;22761;-81
2023/06/27 01:42:18;;;;;;;8.40;7.50;;;;;;;16.91;97.34;97549.60;107227;1274;22552;-80
2023/06/27 01:44:46;;;;;;;13.50;10.80;;;;;;;17.05;97.25;97533.81;106956;1278;25139;-81
2023/06/27 01:47:15;;;;;;;8.40;7.40;;;;;;;17.11;97.46;97541.88;107117;1278;24267;-80
2023/06/27 01:49:42;;;;;;;14.40;11.20;;;;;;;17.30;98.63;97516.21;106982;1278;22531;-80
2023/06/27 01:52:12;;;;;;;13.70;12.10;;;;;;;17.44;96.92;97519.45;106899;1278;22640;-80
2023/06/27 01:54:44;;;;;;;13.80;10.30;;;;;;;17.42;96.64;97534.88;106715;1278;24059;-82
2023/06/27 01:57:11;;;;;;;12.00;8.70;;;;;;;17.36;96.41;97531.77;106837;1278;22555;-80
2023/06/27 01:59:39;;;;;;;11.20;9.30;;;;;;;17.43;97.42;97517.63;106816;1278;22563;-80
2023/06/27 02:02:06;;;;;;;11.50;8.60;;;;;;;17.55;96.61;97512.43;106871;1278;25211;-80
2023/06/27 02:04:33;;;;;;;9.70;8.30;;;;;;;17.53;95.70;97510.23;106865;1278;26528;-79
2023/06/27 02:06:59;;;;;;;12.90;8.50;;;;;;;17.50;96.27;97503.38;106572;1278;24255;-79
2023/06/27 02:09:26;;;;;;;10.00;8.20;;;;;;;17.59;96.85;97494.27;106530;1278;22588;-79
2023/06/27 02:11:53;;;;;;;9.80;8.30;;;;;;;17.67;96.61;97489.84;106922;1278;22534;-80
2023/06/27 02:14:20;;;;;;;13.70;10.60;;;;;;;17.73;96.09;97488.96;106802;1278;22530;-80
2023/06/27 02:16:46;;;;;;;10.00;7.70;;;;;;;17.73;95.80;97488.96;106736;1278;22586;-79
2023/06/27 02:19:15;;;;;;;10.10;7.70;;;;;;;17.68;95.95;97481.54;106796;1277;23258;-79
2023/06/27 02:21:43;;;;;;;10.40;8.70;;;;;;;17.70;96.05;97480.66;106833;1277;25363;-79
2023/06/27 02:24:10;;;;;;;12.10;7.90;;;;;;;17.64;95.75;97480.45;106960;1277;22571;-79
2023/06/27 02:26:37;;;;;;;8.70;7.70;;;;;;;17.54;95.69;97481.63;106546;1277;22547;-80
2023/06/27 02:29:04;;;;;;;8.30;6.60;;;;;;;17.48;96.02;97477.45;106722;1277;24274;-80
2023/06/27 02:31:30;;;;;;;13.70;12.30;;;;;;;17.54;96.66;97476.55;106837;1257;23346;-79
2023/06/27 02:33:58;;;;;;;11.00;8.40;;;;;;;17.55;96.68;97480.48;106428;1278;24263;-80
2023/06/27 02:36:27;;;;;;;7.90;6.70;;;;;;;17.50;96.40;97488.92;106852;1278;22530;-78
2023/06/27 02:38:56;;;;;;;7.50;6.80;;;;;;;17.46;96.37;97497.22;106900;1277;23290;-78
2023/06/27 02:41:23;;;;;;;7.90;6.50;;;;;;;17.37;96.38;97505.73;106497;1278;23001;-80
2023/06/27 02:43:50;;;;;;;11.00;7.50;;;;;;;17.32;96.79;97510.27;107113;1277;22526;-81
2023/06/27 02:46:17;;;;;;;10.00;9.00;;;;;;;17.27;98.13;97514.96;106965;1277;22653;-80
2023/06/27 02:48:44;;;;;;;10.90;9.90;;;;;;;17.17;99.39;97519.34;106577;1277;22598;-79
2023/06/27 02:51:11;;;;;;;11.00;10.00;;;;;;;17.05;99.67;97524.09;106817;1277;23354;-79
2023/06/27 02:53:38;;;;;;;12.20;11.00;;;;;;;16.95;99.91;97523.66;107022;1277;24200;-80
2023/06/27 02:56:07;;;;;;;12.30;10.70;;;;;;;16.90;100.00;97518.77;106747;1278;22534;-80
2023/06/27 02:58:35;;;;;;;11.00;9.90;;;;;;;16.83;100.00;97521.65;107083;1278;24797;-80
2023/06/27 03:01:03;;;;;;;11.20;10.20;;;;;;;16.80;100.00;97522.45;106946;1278;22533;-80
2023/06/27 03:03:31;;;;;;;10.70;9.80;;;;;;;16.74;100.00;97517.58;106746;1278;23968;-79
2023/06/27 03:06:08;;;;;;;11.70;10.60;;;;;;;16.70;100.00;97525.63;106787;1278;24199;-79
2023/06/27 03:08:37;;;;;;;12.30;11.00;;;;;;;16.69;100.00;97520.25;106913;1278;23944;-79
2023/06/27 03:11:04;;;;;;;13.20;11.90;;;;;;;16.69;100.00;97525.31;106824;1277;22527;-80
2023/06/27 03:13:31;;;;;;;14.20;12.80;;;;;;;16.66;100.00;97529.16;106768;1278;24237;-81
2023/06/27 03:15:58;;;;;;;14.80;13.40;;;;;;;16.66;100.00;97528.46;106807;1278;22657;-80
2023/06/27 03:18:25;;;;;;;16.60;15.00;;;;;;;16.64;100.00;97521.17;106515;1277;24263;-81
2023/06/27 03:20:52;;;;;;;15.00;13.70;;;;;;;16.60;100.00;97522.10;106834;1278;25459;-81
2023/06/27 03:23:18;;;;;;;15.70;14.30;;;;;;;16.60;100.00;97524.98;106910;1278;25057;-81
2023/06/27 03:25:45;;;;;;;17.00;15.60;;;;;;;16.62;100.00;97522.36;106862;1277;22554;-80
2023/06/27 03:28:12;;;;;;;15.80;14.40;;;;;;;16.66;100.00;97521.23;106881;1277;22792;-80
2023/06/27 03:30:46;;;;;;;16.80;15.10;;;;;;;16.67;100.00;97522.82;106864;1278;25258;-81
2023/06/27 03:33:13;;;;;;;16.90;15.40;;;;;;;16.68;100.00;97523.33;106590;1278;24254;-80
2023/06/27 03:35:39;;;;;;;20.00;18.20;;;;;;;16.68;100.00;97524.00;106506;1276;22583;-81
2023/06/27 03:38:07;;;;;;;17.10;15.50;;;;;;;16.70;100.00;97527.11;106785;1277;25398;-81
2023/06/27 03:40:34;;;;;;;17.50;15.70;;;;;;;16.72;100.00;97533.22;106519;1277;24411;-81
2023/06/27 03:43:01;;;;;;;16.80;15.30;;;;;;;16.73;100.00;97530.76;107071;1276;22562;-81
2023/06/27 03:45:28;;;;;;;15.80;14.40;;;;;;;16.73;100.00;97525.65;106495;1276;22530;-81
2023/06/27 03:47:55;;;;;;;22.30;15.30;;;;;;;16.72;100.00;97526.61;106583;1277;22603;-82
2023/06/27 03:50:22;;;;;;;15.80;14.40;;;;;;;16.72;100.00;97528.55;107047;1276;22636;-82
2023/06/27 03:52:48;;;;;;;13.10;11.80;;;;;;;16.71;100.00;97524.09;106783;1276;23948;-80
2023/06/27 03:55:17;;;;;;;14.40;13.20;;;;;;;16.71;100.00;97525.03;106732;1277;22617;-83
2023/06/27 03:57:44;;;;;;;14.40;13.10;;;;;;;16.72;100.00;97523.97;106769;1276;24101;-82
2023/06/27 04:00:12;;;;;;;13.40;12.10;;;;;;;16.71;100.00;97519.51;106582;1276;25338;-82
2023/06/27 04:02:41;;;;;;;14.10;12.60;;;;;;;16.71;100.00;97512.69;107045;1277;22782;-81
2023/06/27 04:05:08;;;;;;;14.30;13.00;;;;;;;16.75;100.00;97515.98;107029;1276;22826;-82
2023/06/27 04:07:35;;;;;;;13.70;12.40;;;;;;;16.80;100.00;97518.45;106771;1277;24295;-81
2023/06/27 04:10:02;;;;;;;12.00;10.90;;;;;;;16.84;100.00;97520.73;106492;1276;25233;-81
2023/06/27 04:12:30;;;;;;;14.40;13.10;;;;;;;16.85;100.00;97521.94;107049;1276;24190;-81
2023/06/27 04:14:56;;;;;;;15.90;14.50;;;;;;;16.85;100.00;97520.30;107075;1277;22636;-80
2023/06/27 04:17:23;;;;;;;16.20;13.80;;;;;;;16.85;100.00;97504.67;107206;1277;23813;-84
2023/06/27 04:19:50;;;;;;;15.60;13.60;;;;;;;16.86;100.00;97503.45;107047;1276;22550;-83
2023/06/27 04:22:17;;;;;;;15.10;13.50;;;;;;;16.86;100.00;97503.77;106822;1277;22560;-81
2023/06/27 04:24:44;;;;;;;15.20;13.80;;;;;;;16.88;100.00;97503.11;107092;1277;25328;-81
2023/06/27 04:27:11;;;;;;;17.20;14.30;;;;;;;16.88;100.00;97511.12;106588;1276;25328;-82
2023/06/27 04:29:38;;;;;;;16.50;14.20;;;;;;;16.89;100.00;97507.73;107104;1276;25456;-83
2023/06/27 04:32:07;;;;;;;14.30;12.90;;;;;;;16.91;100.00;97509.09;106977;1277;22678;-82
2023/06/27 04:34:36;;;;;;;16.90;14.10;;;;;;;16.94;100.00;97509.63;107059;1277;25288;-82
2023/06/27 04:37:04;;;;;;;14.70;13.30;;;;;;;16.94;100.00;97510.20;107036;1257;26641;-82
2023/06/27 04:39:31;;;;;;;14.00;12.50;;;;;;;16.93;100.00;97506.29;106948;1259;22574;-81
2023/06/27 04:41:58;;;;;;;15.90;13.00;;;;;;;16.95;100.00;97504.23;107049;1276;24231;-80
2023/06/27 04:44:25;;;;;;;15.80;13.20;;;;;;;16.97;100.00;97505.14;106753;1275;331901;-79
2023/06/27 04:46:54;;;;;;;15.50;13.50;;;;;;;16.95;100.00;97502.36;106971;1270;22574;-81
2023/06/27 04:49:21;;;;;;;14.50;13.00;;;;;;;16.97;100.00;97498.45;106711;1277;25393;-79
2023/06/27 04:51:48;;;;;;;13.80;12.50;;;;;;;17.00;100.00;97501.32;107060;1254;22527;-80
2023/06/27 04:54:14;;;;;;;15.10;13.70;;;;;;;17.03;100.00;97500.30;107106;1277;22534;-80
2023/06/27 04:56:41;;;;;;;15.30;12.20;;;;;;;17.00;100.00;97505.29;107163;1277;24071;-79
2023/06/27 04:59:08;;;;;;;15.80;14.20;;;;;;;17.02;100.00;97500.36;107054;1277;22772;-79
2023/06/27 05:01:34;;;;;;;16.20;14.60;;;;;;;17.00;100.00;97497.60;107040;1277;25107;-77
2023/06/27 05:04:04;;;;;;;16.10;14.50;;;;;;;17.02;100.00;97499.13;106774;1266;22531;-78
2023/06/27 05:06:34;;;;;;;16.50;14.80;;;;;;;17.08;100.00;97490.80;107102;1276;23932;-78
2023/06/27 05:09:04;;;;;;;15.40;13.90;;;;;;;17.12;100.00;97495.39;106771;1277;25290;-79
2023/06/27 05:11:30;;;;;;;15.10;13.70;;;;;;;17.14;100.00;97500.91;107064;1277;22530;-80
2023/06/27 05:13:57;;;;;;;14.40;13.10;;;;;;;17.13;100.00;97506.70;106486;1276;22591;-80
2023/06/27 05:16:24;;;;;;;14.00;12.70;;;;;;;17.11;100.00;97515.44;107060;1276;22534;-79
2023/06/27 05:18:51;;;;;;;10.40;9.40;;;;;;;17.06;100.00;97516.02;107107;1277;22637;-80
2023/06/27 05:21:18;;;;;;;8.20;7.40;;;;;;;17.04;100.00;97522.80;106791;1277;22571;-79
2023/06/27 05:23:45;;;;;;;11.00;7.50;;;;;;;16.94;100.00;97512.91;106749;1277;25363;-79
2023/06/27 05:26:11;;;;;;;6.70;4.60;;;;;;;16.84;100.00;97515.59;106764;1277;24242;-80
2023/06/27 05:28:39;;;;;;;6.50;5.70;;;;;;;16.72;100.00;97514.56;106779;1277;22547;-79
2023/06/27 05:31:05;;;;;;;7.10;6.10;;;;;;;16.60;100.00;97523.73;107044;1277;23274;-80
2023/06/27 05:33:32;;;;;;;6.80;6.10;;;;;;;16.51;100.00;97526.28;107081;1277;22525;-80
2023/06/27 05:35:59;;;;;;;7.90;6.90;;;;;;;16.47;100.00;97533.08;107049;1276;24272;-79
2023/06/27 05:38:25;;;;;;;9.30;7.70;;;;;;;16.44;100.00;97533.23;107107;1276;22609;-79
2023/06/27 05:40:52;;;;;;;13.00;8.00;;;;;;;16.44;100.00;97527.79;107035;1277;25284;-80
2023/06/27 05:43:19;;;;;;;10.30;7.90;;;;;;;16.45;100.00;97533.47;106770;1276;22557;-80
2023/06/27 05:45:45;;;;;;;8.80;7.90;;;;;;;16.48;100.00;97545.39;107000;1276;22534;-80
2023/06/27 05:48:12;;;;;;;10.10;8.50;;;;;;;16.46;100.00;97549.37;107067;1277;24392;-80
2023/06/27 05:50:39;;;;;;;9.50;8.10;;;;;;;16.44;100.00;97548.84;107092;1259;23121;-80
2023/06/27 05:53:06;;;;;;;9.70;8.00;;;;;;;16.35;100.00;97554.26;107049;1277;22542;-80
2023/06/27 05:55:32;;;;;;;9.20;7.60;;;;;;;16.27;100.00;97553.02;106796;1277;22546;-80
2023/06/27 05:57:59;;;;;;;8.20;7.10;;;;;;;16.24;100.00;97557.67;106868;1277;23931;-80
2023/06/27 06:00:25;;;;;;;12.60;7.50;;;;;;;16.23;100.00;97554.93;106805;1277;22565;-80
2023/06/27 06:02:53;;;;;;;10.70;7.10;;;;;;;16.24;100.00;97559.92;106853;1277;22538;-82
2023/06/27 06:05:20;;;;;;;11.80;7.20;;;;;;;16.19;100.00;97557.61;107038;1277;24272;-80
2023/06/27 06:07:46;;;;;;;9.20;6.70;;;;;;;16.20;100.00;97562.45;107034;1276;22571;-80
2023/06/27 06:10:13;;;;;;;9.50;7.20;;;;;;;16.21;100.00;97569.87;107106;1277;25319;-80
2023/06/27 06:12:40;;;;;;;9.80;7.00;;;;;;;16.20;100.00;97575.48;107084;1277;22585;-81
2023/06/27 06:15:07;;;;;;;9.80;6.80;;;;;;;16.19;100.00;97579.36;106755;1277;22543;-80
2023/06/27 06:17:34;;;;;;;10.60;7.20;;;;;;;16.19;100.00;97586.88;106755;1277;24313;-81
2023/06/27 06:20:03;;;;;;;10.30;6.60;;;;;;;16.23;100.00;97585.13;106779;1277;22536;-81
2023/06/27 06:22:31;;;;;;;10.30;6.60;;;;;;;16.26;100.00;97589.80;106853;1276;24202;-80
2023/06/27 06:24:58;;;;;;;7.90;6.30;;;;;;;16.28;100.00;97607.19;106789;1276;25402;-80
2023/06/27 06:27:25;;;;;;;10.20;6.00;;;;;;;16.26;100.00;97605.50;106699;1277;22539;-81
2023/06/27 06:29:52;;;;;;;11.70;6.00;;;;;;;16.26;100.00;97600.77;107097;1277;22532;-81
2023/06/27 06:32:18;;;;;;;10.20;6.70;;;;;;;16.34;100.00;97605.58;107063;1277;22992;-81
2023/06/27 06:34:45;;;;;;;9.40;6.10;;;;;;;16.36;100.00;97612.88;107031;1276;22534;-81
2023/06/27 06:37:14;;;;;;;7.90;5.50;;;;;;;16.32;100.00;97614.45;107048;1277;22708;-81
2023/06/27 06:39:43;;;;;;;11.80;6.90;;;;;;;16.32;100.00;97612.76;107102;1276;24196;-81
2023/06/27 06:42:10;;;;;;;8.90;5.70;;;;;;;16.33;100.00;97618.33;107065;1277;22643;-80
2023/06/27 06:44:37;;;;;;;8.00;5.50;;;;;;;16.44;100.00;97621.17;107044;1277;23956;-80
2023/06/27 06:47:04;;;;;;;7.00;5.30;;;;;;;16.61;100.00;97619.42;107078;1276;25224;-81
2023/06/27 06:49:31;;;;;;;8.80;6.00;;;;;;;16.82;100.00;97617.77;107021;1277;24063;-80
2023/06/27 06:51:58;;;;;;;9.10;6.00;;;;;;;17.02;100.00;97614.91;106825;1277;22643;-80
2023/06/27 06:54:24;;;;;;;11.60;5.60;;;;;;;17.11;100.00;97620.13;107010;1269;24346;-80
2023/06/27 06:56:51;;;;;;;12.30;6.20;;;;;;;17.18;100.00;97623.44;107121;1276;23295;-80
2023/06/27 06:59:17;;;;;;;12.90;5.70;;;;;;;17.18;100.00;97624.07;107066;1278;25391;-81
2023/06/27 07:01:44;;;;;;;7.30;5.20;;;;;;;17.18;100.00;97629.04;107130;1276;25430;-81
2023/06/27 07:04:11;;;;;;;7.90;5.70;;;;;;;17.12;100.00;97628.95;107069;1276;25484;-81
2023/06/27 07:06:37;;;;;;;11.00;5.10;;;;;;;17.12;100.00;97633.77;107046;1277;24251;-78
2023/06/27 07:09:04;;;;;;;8.00;5.60;;;;;;;17.11;100.00;97629.39;106745;1277;24346;-78
2023/06/27 07:11:31;;;;;;;12.40;6.30;;;;;;;17.08;100.00;97630.86;107041;1277;26380;-78
2023/06/27 07:13:59;;;;;;;9.00;5.50;;;;;;;17.08;100.00;97623.79;107059;1277;24209;-77
2023/06/27 07:16:26;;;;;;;8.90;5.60;;;;;;;17.08;100.00;97624.40;106947;1276;25402;-77
2023/06/27 07:18:52;;;;;;;8.00;5.40;;;;;;;17.13;100.00;97629.11;107035;1276;25372;-77
2023/06/27 07:21:19;;;;;;;9.50;5.40;;;;;;;17.14;99.95;97635.84;106775;1277;22524;-78
2023/06/27 07:23:46;;;;;;;12.40;6.40;;;;;;;17.17;99.77;97629.00;106735;1276;24685;-77
2023/06/27 07:26:13;;;;;;;10.80;5.80;;;;;;;17.22;99.84;97629.52;106771;1276;25382;-78
2023/06/27 07:28:39;;;;;;;9.80;5.60;;;;;;;17.23;99.70;97630.87;107017;1276;23503;-78
2023/06/27 07:31:06;;;;;;;11.60;5.50;;;;;;;17.28;99.85;97627.65;107000;1276;22655;-78
2023/06/27 07:33:32;;;;;;;8.00;5.30;;;;;;;17.32;99.60;97628.23;107081;1277;24053;-78
2023/06/27 07:35:59;;;;;;;8.10;5.10;;;;;;;17.32;99.12;97634.52;107049;1276;22611;-79
2023/06/27 07:38:26;;;;;;;9.40;5.80;;;;;;;17.30;99.54;97637.52;107053;1277;25281;-79
2023/06/27 07:40:52;;;;;;;8.20;5.30;;;;;;;17.37;99.86;97632.95;107016;1276;22530;-79
2023/06/27 07:43:23;;;;;;;10.90;6.00;;;;;;;17.41;98.44;97634.67;107075;1277;25230;-79
2023/06/27 07:45:50;;;;;;;8.20;5.30;;;;;;;17.37;97.62;97637.99;106999;1277;22545;-78
2023/06/27 07:48:17;;;;;;;10.10;5.30;;;;;;;17.38;98.10;97636.40;106852;1277;22784;-78
2023/06/27 07:50:44;;;;;;;8.50;5.60;;;;;;;17.41;98.39;97640.29;106749;1276;22471;-78
2023/06/27 07:53:10;;;;;;;8.10;5.60;;;;;;;17.37;97.51;97641.05;106809;1276;22560;-80
2023/06/27 07:55:37;;;;;;;10.70;5.80;;;;;;;17.31;97.46;97639.25;106740;1277;25452;-78
2023/06/27 07:58:03;;;;;;;12.90;5.50;;;;;;;17.32;98.31;97631.80;106705;1277;24678;-78
2023/06/27 08:00:30;;;;;;;11.80;6.20;;;;;;;17.39;98.13;97638.81;106721;1276;22588;-78
2023/06/27 08:02:57;;;;;;;9.60;6.00;;;;;;;17.36;96.66;97634.55;107041;1277;22534;-78
2023/06/27 08:05:27;;;;;;;9.40;5.40;;;;;;;17.29;96.88;97634.54;107019;1276;22558;-77
2023/06/27 08:07:54;;;;;;;9.30;5.80;;;;;;;17.34;97.56;97633.11;106652;1277;22586;-77
2023/06/27 08:10:20;;;;;;;11.10;5.90;;;;;;;17.53;97.96;97636.38;106774;1276;22732;-77
2023/06/27 08:12:47;;;;;;;10.50;6.30;;;;;;;17.64;97.14;97640.33;107051;1267;22537;-77
2023/06/27 08:15:13;;;;;;;10.30;6.40;;;;;;;17.64;96.16;97641.58;106693;1277;22518;-78
2023/06/27 08:17:40;;;;;;;9.70;6.40;;;;;;;17.61;95.95;97638.55;106772;1276;23898;-78
2023/06/27 08:20:07;;;;;;;11.00;6.30;;;;;;;17.58;96.41;97637.69;106993;1276;25484;-78
2023/06/27 08:22:34;;;;;;;9.20;6.30;;;;;;;17.58;96.49;97639.94;106763;1276;24259;-78
2023/06/27 08:25:01;;;;;;;9.40;6.50;;;;;;;17.51;96.48;97642.34;106747;1276;22536;-78
2023/06/27 08:27:27;;;;;;;12.00;6.30;;;;;;;17.45;96.77;97639.23;106986;1276;25342;-78
2023/06/27 08:29:54;;;;;;;11.60;6.00;;;;;;;17.43;97.08;97646.10;107005;1276;22802;-77
2023/06/27 08:32:21;;;;;;;9.60;6.60;;;;;;;17.46;97.08;97647.67;106735;1277;25390;-78
2023/06/27 08:34:47;;;;;;;11.40;6.00;;;;;;;17.46;96.82;97654.98;106740;1276;25400;-78
2023/06/27 08:37:14;;;;;;;9.60;6.60;;;;;;;17.41;96.83;97654.28;106772;1277;23940;-78
2023/06/27 08:39:41;;;;;;;9.00;6.80;;;;;;;17.28;95.95;97664.52;106743;1277;25261;-78
2023/06/27 08:42:07;;;;;;;11.20;6.90;;;;;;;17.12;95.52;97661.05;106997;1276;25408;-77
2023/06/27 08:44:34;;;;;;;11.70;7.40;;;;;;;17.10;95.84;97656.67;106762;1276;23950;-76
2023/06/27 08:47:05;;;;;;;10.80;7.00;;;;;;;17.15;96.02;97657.13;106734;1254;25568;-78
2023/06/27 08:49:33;;;;;;;10.00;7.00;;;;;;;17.24;95.28;97662.88;106770;1276;23940;-77
2023/06/27 08:52:04;;;;;;;11.20;7.60;;;;;;;17.32;94.18;97659.35;106751;1277;22693;-77
2023/06/27 08:54:41;;;;;;;11.90;6.70;;;;;;;17.47;93.22;97669.48;106872;1277;25386;-78
2023/06/27 08:57:11;;;;;;;8.00;6.30;;;;;;;17.60;92.90;97668.71;106726;1277;22574;-78
2023/06/27 08:59:41;;;;;;;13.70;7.10;;;;;;;17.67;92.57;97669.60;106775;1277;25485;-79
2023/06/27 09:02:12;;;;;;;11.50;7.50;;;;;;;17.76;92.73;97676.14;106994;1277;24240;-78
2023/06/27 09:04:41;;;;;;;11.40;7.50;;;;;;;17.82;90.61;97678.48;107013;1277;24212;-78
2023/06/27 09:07:10;;;;;;;7.80;6.80;;;;;;;17.92;90.80;97676.64;106684;1273;23934;-77
2023/06/27 09:09:37;;;;;;;9.60;6.20;;;;;;;18.03;90.04;97674.41;106762;1277;24256;-78
2023/06/27 09:12:06;;;;;;;9.70;6.80;;;;;;;18.14;89.05;97673.40;106707;1276;25994;-76
2023/06/27 09:14:33;;;;;;;12.60;7.30;;;;;;;18.23;87.79;97672.83;106759;1276;25087;-76
2023/06/27 09:17:00;;;;;;;8.60;6.80;;;;;;;18.21;85.65;97683.39;106687;1276;24065;-77
2023/06/27 09:19:27;;;;;;;12.60;6.40;;;;;;;18.24;86.14;97677.84;106645;1277;23042;-77
2023/06/27 09:21:54;;;;;;;12.70;6.30;;;;;;;18.31;85.67;97682.39;106558;1277;25512;-77
2023/06/27 09:24:24;;;;;;;10.90;6.50;;;;;;;18.38;85.13;97686.98;106729;1277;25463;-77
2023/06/27 09:26:51;;;;;;;9.00;6.30;;;;;;;18.55;83.06;97690.17;106570;1277;22590;-77
2023/06/27 09:29:19;;;;;;;9.60;6.00;;;;;;;18.66;81.28;97684.33;106777;1277;24197;-77
2023/06/27 09:31:46;;;;;;;12.90;6.80;;;;;;;18.84;81.38;97687.38;106673;1276;22735;-77
2023/06/27 09:34:13;;;;;;;18.40;6.70;;;;;;;19.06;81.39;97691.04;106649;1277;22551;-77
2023/06/27 09:36:40;;;;;;;8.90;6.30;;;;;;;19.18;78.41;97695.95;106675;1276;23931;-77
2023/06/27 09:39:15;;;;;;;9.10;5.60;;;;;;;19.28;77.96;97686.32;106807;1273;25287;-77
2023/06/27 09:41:46;;;;;;;10.70;5.70;;;;;;;19.37;76.51;97688.52;106761;1276;22539;-77
2023/06/27 09:44:20;;;;;;;8.90;5.90;;;;;;;19.36;75.40;97686.94;106719;1277;22551;-76
2023/06/27 09:46:49;;;;;;;7.80;6.20;;;;;;;19.39;76.59;97683.63;106599;1276;22609;-77
2023/06/27 09:49:16;;;;;;;9.90;5.70;;;;;;;19.46;76.68;97689.16;106713;1277;25406;-77
2023/06/27 09:51:50;;;;;;;9.80;6.00;;;;;;;19.54;74.78;97681.26;106726;1277;22611;-77
2023/06/27 09:54:22;;;;;;;7.20;5.20;;;;;;;19.47;72.45;97691.90;106711;1276;24091;-77
2023/06/27 09:56:50;;;;;;;6.80;4.90;;;;;;;19.46;73.03;97692.11;106782;1266;25287;-78
2023/06/27 09:59:22;;;;;;;9.00;5.10;;;;;;;19.48;72.25;97693.41;106743;1277;22539;-77
2023/06/27 10:01:53;;;;;;;8.70;4.70;;;;;;;19.51;70.65;97700.40;106713;1277;22762;-77
2023/06/27 10:04:21;;;;;;;8.40;4.40;;;;;;;19.46;69.79;97698.14;106733;1276;24265;-78
2023/06/27 10:07:11;;;;;;;8.50;4.30;;;;;;;19.38;67.91;97703.84;106671;1276;22539;-77
2023/06/27 10:09:38;;;;;;;5.60;3.60;;;;;;;19.42;67.46;97699.39;106682;1276;23930;-76
2023/06/27 10:12:07;;;;;;;7.90;3.90;;;;;;;19.50;67.40;97693.77;106654;1277;22625;-76
2023/06/27 10:14:34;;;;;;;10.90;4.70;;;;;;;19.58;67.11;97687.72;106706;1276;24249;-78
2023/06/27 10:17:05;;;;;;;8.30;3.80;;;;;;;19.66;65.42;97710.63;106657;1277;25352;-76
2023/06/27 10:19:37;;;;;;;6.80;3.40;;;;;;;19.59;64.08;97712.04;106712;1276;22534;-76
2023/06/27 10:22:10;;;;;;;5.80;3.30;;;;;;;19.69;64.75;97712.96;106728;1277;25328;-76
2023/06/27 10:24:43;;;;;;;5.80;3.20;;;;;;;19.78;63.34;97721.77;106969;1276;22546;-76
2023/06/27 10:27:13;;;;;;;7.30;3.30;;;;;;;19.83;63.76;97713.04;106747;1276;22575;-77
2023/06/27 10:29:42;;;;;;;11.00;4.00;;;;;;;19.91;62.88;97708.73;106740;1277;26181;-77
2023/06/27 10:32:09;;;;;;;7.80;4.20;;;;;;;19.86;62.80;97709.81;106733;1276;22803;-77
2023/06/27 10:34:42;;;;;;;6.70;3.30;;;;;;;19.82;62.60;97709.98;106669;1277;24374;-77
2023/06/27 10:37:25;;;;;;;6.30;3.80;;;;;;;19.81;61.89;97700.91;106720;1276;22660;-77
2023/06/27 10:40:08;;;;;;;7.50;4.00;;;;;;;19.88;62.31;97701.56;106694;1276;25546;-77
2023/06/27 10:42:35;;;;;;;9.80;4.20;;;;;;;19.97;62.98;97693.59;106666;1276;22568;-77
2023/06/27 10:45:11;;;;;;;6.50;3.80;;;;;;;20.08;62.34;97696.42;106613;1276;22650;-78
2023/06/27 10:47:44;;;;;;;9.70;3.80;;;;;;;19.97;61.84;97690.86;106703;1264;22536;-78
2023/06/27 10:50:19;;;;;;;12.00;3.70;;;;;;;20.03;62.86;97690.33;106605;1276;23953;-77
2023/06/27 10:53:00;;;;;;;7.30;3.80;;;;;;;20.09;62.59;97693.31;106676;1276;24275;-76
2023/06/27 10:55:28;;;;;;;7.40;4.00;;;;;;;20.17;63.59;97685.86;106947;1276;23931;-77
2023/06/27 10:58:10;;;;;;;11.20;4.00;;;;;;;20.21;61.86;97686.63;106974;1276;24240;-77
2023/06/27 11:00:54;;;;;;;6.80;3.70;;;;;;;20.30;62.24;97688.42;106702;1276;22553;-77
2023/06/27 11:03:22;;;;;;;;;;;;;;;20.41;61.72;97677.70;106724;1276;22508;-76
2023/06/27 11:05:57;;;;;;;12.00;4.00;;;;;;;20.41;61.03;97677.69;106720;1276;22577;-76
2023/06/27 11:08:29;;;;;;;7.10;3.70;;;;;;;20.28;61.92;97672.13;106498;1276;22554;-78
2023/06/27 11:11:05;;;;;;;8.80;4.20;;;;;;;20.23;61.41;97671.50;106687;1276;25380;-77
2023/06/27 11:13:38;;;;;;;8.00;3.90;;;;;;;20.14;61.49;97671.67;106804;1276;23920;-77
2023/06/27 11:16:05;;;;;;;9.50;4.00;;;;;;;20.38;60.89;97670.00;106744;1276;22534;-77
2023/06/27 11:18:33;;;;;;;8.90;3.80;;;;;;;20.51;60.32;97667.84;106741;1276;25334;-77
2023/06/27 11:21:00;;;;;;;12.90;3.90;;;;;;;20.63;58.68;97669.59;106720;1276;22818;-77
2023/06/27 11:23:29;;;;;;;6.70;3.70;;;;;;;20.63;57.09;97670.70;106735;1276;22560;-77